createdAt,value
2019-05-18T00:01:50.167Z,8.10
2019-05-18T00:04:18.209Z,8.38
2019-05-18T00:06:46.296Z,8.85
2019-05-18T00:09:14.301Z,8.53
2019-05-18T00:11:42.310Z,8.85
2019-05-18T00:14:10.435Z,8.70
2019-05-18T00:16:38.571Z,8.23
2019-05-18T00:19:06.597Z,8.50
2019-05-18T00:21:34.644Z,7.60
2019-05-18T00:24:21.364Z,7.92
2019-05-18T00:26:49.418Z,9.03
2019-05-18T00:29:17.454Z,7.75
2019-05-18T00:31:45.478Z,8.25
2019-05-18T00:34:13.496Z,7.90
2019-05-18T00:36:41.686Z,8.35
2019-05-18T00:39:09.687Z,7.97
2019-05-18T00:41:37.731Z,7.75
2019-05-18T00:44:05.763Z,8.10
2019-05-18T00:46:33.806Z,8.45
2019-05-18T00:49:01.855Z,8.05
2019-05-18T00:51:29.846Z,7.55
2019-05-18T00:53:57.876Z,7.75
2019-05-18T00:56:26.434Z,7.72
2019-05-18T00:58:54.447Z,7.78
2019-05-18T01:01:22.477Z,7.80
2019-05-18T01:03:50.528Z,8.00
2019-05-18T01:06:18.555Z,7.50
2019-05-18T01:08:46.575Z,7.15
2019-05-18T01:11:14.715Z,7.75
2019-05-18T01:13:42.736Z,7.67
2019-05-18T01:16:10.728Z,8.00
2019-05-18T01:18:38.846Z,7.40
2019-05-18T01:21:06.838Z,7.28
2019-05-18T01:23:34.868Z,8.20
2019-05-18T01:26:03.233Z,8.00
2019-05-18T01:28:31.247Z,6.92
2019-05-18T01:30:59.297Z,7.47
2019-05-18T01:33:27.322Z,7.22
2019-05-18T01:35:55.324Z,7.40
2019-05-18T01:38:23.334Z,7.12
2019-05-18T01:40:51.371Z,7.30
2019-05-18T01:43:19.781Z,7.17
2019-05-18T01:45:47.819Z,7.17
2019-05-18T01:48:15.863Z,6.75
2019-05-18T01:50:43.912Z,7.12
2019-05-18T01:53:11.950Z,7.85
2019-05-18T01:55:40.163Z,7.90
2019-05-18T01:58:08.233Z,7.17
2019-05-18T02:00:36.235Z,6.90
2019-05-18T02:03:04.251Z,7.00
2019-05-18T02:05:32.283Z,7.80
2019-05-18T02:08:00.278Z,7.22
2019-05-18T02:10:28.393Z,6.97
2019-05-18T02:12:56.470Z,6.67
2019-05-18T02:15:24.475Z,6.55
2019-05-18T02:17:52.522Z,7.10
2019-05-18T02:20:20.572Z,7.20
2019-05-18T02:22:48.584Z,6.95
2019-05-18T02:25:16.669Z,7.12
2019-05-18T02:27:44.680Z,7.62
2019-05-18T02:30:16.977Z,7.03
2019-05-18T02:32:42.443Z,6.70
2019-05-18T02:35:10.496Z,6.60
2019-05-18T02:37:38.597Z,6.58
2019-05-18T02:40:06.630Z,6.55
2019-05-18T02:42:34.620Z,6.78
2019-05-18T02:45:02.761Z,6.60
2019-05-18T02:47:30.880Z,6.80
2019-05-18T02:49:58.916Z,7.10
2019-05-18T02:52:27.071Z,6.78
2019-05-18T02:54:55.201Z,6.90
2019-05-18T02:57:23.233Z,7.03
2019-05-18T02:59:51.279Z,6.60
2019-05-18T03:02:19.539Z,6.60
2019-05-18T03:04:47.627Z,6.53
2019-05-18T03:07:15.727Z,7.12
2019-05-18T03:09:43.784Z,6.80
2019-05-18T03:12:12.091Z,6.53
2019-05-18T03:14:40.107Z,6.42
2019-05-18T03:17:08.097Z,6.40
2019-05-18T03:19:36.147Z,6.80
2019-05-18T03:22:04.172Z,6.22
2019-05-18T03:24:32.193Z,5.92
2019-05-18T03:27:00.393Z,6.20
2019-05-18T03:29:28.425Z,6.55
2019-05-18T03:31:56.462Z,7.03
2019-05-18T03:34:24.462Z,6.53
2019-05-18T03:36:53.163Z,6.78
2019-05-18T03:39:21.194Z,6.42
2019-05-18T03:41:49.209Z,7.00
2019-05-18T03:44:17.427Z,7.08
2019-05-18T03:46:45.466Z,6.37
2019-05-18T03:49:25.960Z,6.15
2019-05-18T03:51:43.244Z,6.47
2019-05-18T03:54:11.308Z,6.22
2019-05-18T03:56:39.330Z,6.53
2019-05-18T03:59:07.366Z,6.20
2019-05-18T04:01:35.357Z,6.20
2019-05-18T04:04:03.353Z,6.35
2019-05-18T04:06:31.394Z,6.45
2019-05-18T04:08:59.426Z,6.65
2019-05-18T04:11:27.477Z,7.10
2019-05-18T04:13:55.517Z,6.65
2019-05-18T04:16:23.515Z,6.30
2019-05-18T04:18:51.562Z,6.72
2019-05-18T04:21:19.946Z,6.50
2019-05-18T04:23:47.970Z,6.40
2019-05-18T04:26:16.041Z,6.45
2019-05-18T04:28:44.109Z,6.37
2019-05-18T04:31:12.146Z,6.85
2019-05-18T04:33:40.234Z,6.37
2019-05-18T04:36:08.214Z,6.53
2019-05-18T04:38:36.227Z,6.17
2019-05-18T04:41:04.385Z,6.70
2019-05-18T04:43:32.369Z,6.80
2019-05-18T04:46:19.123Z,7.08
2019-05-18T04:48:47.146Z,6.40
2019-05-18T04:51:15.265Z,6.15
2019-05-18T04:53:43.268Z,6.55
2019-05-18T04:56:11.301Z,6.58
2019-05-18T04:58:39.293Z,6.78
2019-05-18T05:01:07.310Z,6.47
2019-05-18T05:03:35.314Z,6.28
2019-05-18T05:06:03.366Z,6.42
2019-05-18T05:08:31.344Z,6.45
2019-05-18T05:10:59.352Z,6.45
2019-05-18T05:13:27.406Z,6.28
2019-05-18T05:15:55.408Z,6.60
2019-05-18T05:18:23.434Z,6.90
2019-05-18T05:20:51.506Z,6.95
2019-05-18T05:23:19.534Z,6.90
2019-05-18T05:25:47.556Z,6.90
2019-05-18T05:28:15.605Z,6.90
2019-05-18T05:30:43.590Z,6.58
2019-05-18T05:33:11.596Z,7.03
2019-05-18T05:35:39.697Z,6.60
2019-05-18T05:38:07.715Z,6.72
2019-05-18T05:40:35.711Z,7.00
2019-05-18T05:43:03.953Z,6.30
2019-05-18T05:45:31.957Z,6.95
2019-05-18T05:48:00.098Z,6.62
2019-05-18T05:50:36.224Z,7.00
2019-05-18T05:52:58.104Z,6.42
2019-05-18T05:55:26.138Z,7.17
2019-05-18T05:57:54.170Z,7.12
2019-05-18T06:00:22.227Z,7.40
2019-05-18T06:02:50.217Z,6.62
2019-05-18T06:05:18.248Z,6.97
2019-05-18T06:07:46.252Z,6.58
2019-05-18T06:10:14.286Z,7.58
2019-05-18T06:12:42.259Z,7.22
2019-05-18T06:15:10.312Z,7.83
2019-05-18T06:17:38.358Z,7.47
2019-05-18T06:20:06.353Z,7.62
2019-05-18T06:22:34.366Z,7.53
2019-05-18T06:25:03.024Z,8.20
2019-05-18T06:27:31.636Z,8.00
2019-05-18T06:29:59.619Z,8.43
2019-05-18T06:32:27.666Z,8.53
2019-05-18T06:34:55.662Z,8.03
2019-05-18T06:37:23.718Z,8.65
2019-05-18T06:39:51.765Z,8.73
2019-05-18T06:42:19.957Z,8.98
2019-05-18T06:44:47.937Z,9.25
2019-05-18T06:47:15.987Z,9.40
2019-05-18T06:49:44.004Z,9.05
2019-05-18T06:52:11.989Z,9.55
2019-05-18T06:54:40.139Z,8.98
2019-05-18T06:57:08.194Z,10.53
2019-05-18T06:59:36.186Z,10.63
2019-05-18T07:02:04.252Z,10.20
2019-05-18T07:04:32.264Z,10.72
2019-05-18T07:07:00.276Z,13.78
2019-05-18T07:09:28.332Z,12.63
2019-05-18T07:11:56.472Z,13.18
2019-05-18T07:14:26.004Z,13.03
2019-05-18T07:16:54.337Z,14.60
2019-05-18T07:19:22.386Z,14.80
2019-05-18T07:21:50.476Z,13.68
2019-05-18T07:24:18.631Z,13.65
2019-05-18T07:26:46.648Z,14.28
2019-05-18T07:29:14.700Z,14.45
2019-05-18T07:31:42.745Z,14.13
2019-05-18T07:34:10.797Z,14.18
2019-05-18T07:36:38.868Z,13.95
2019-05-18T07:39:06.951Z,14.35
2019-05-18T07:41:46.418Z,14.58
2019-05-18T07:44:04.809Z,14.40
2019-05-18T07:46:32.900Z,15.28
2019-05-18T07:49:01.117Z,14.00
2019-05-18T07:51:36.531Z,14.40
2019-05-18T07:53:58.899Z,13.68
2019-05-18T07:56:27.157Z,12.07
2019-05-18T07:59:13.920Z,10.43
2019-05-18T08:01:41.940Z,11.83
2019-05-18T08:04:09.996Z,10.82
2019-05-18T08:06:38.134Z,11.48
2019-05-18T08:09:06.281Z,10.35
2019-05-18T08:11:34.339Z,10.98
2019-05-18T08:14:02.429Z,11.20
2019-05-18T08:16:30.623Z,10.72
2019-05-18T08:18:58.690Z,10.18
2019-05-18T08:21:26.801Z,9.98
2019-05-18T08:23:54.890Z,10.40
2019-05-18T08:26:23.015Z,10.10
2019-05-18T08:28:51.098Z,10.30
2019-05-18T08:31:19.172Z,6.62
2019-05-18T08:33:48.266Z,6.28
2019-05-18T08:36:16.292Z,6.55
2019-05-18T08:38:44.339Z,7.62
2019-05-18T08:41:12.439Z,5.62
2019-05-18T08:43:40.517Z,6.90
2019-05-18T08:46:08.537Z,6.90
2019-05-18T08:48:36.676Z,7.28
2019-05-18T08:51:05.846Z,7.22
2019-05-18T08:53:34.351Z,7.15
2019-05-18T08:56:02.425Z,8.75
2019-05-18T08:58:30.481Z,9.98
2019-05-18T09:00:58.529Z,10.18
2019-05-18T09:03:26.618Z,9.05
2019-05-18T09:05:54.688Z,8.85
2019-05-18T09:08:22.697Z,10.10
2019-05-18T09:10:50.713Z,10.40
2019-05-18T09:13:18.856Z,9.98
2019-05-18T09:15:46.881Z,9.38
2019-05-18T09:18:14.892Z,8.25
2019-05-18T09:20:43.309Z,8.28
2019-05-18T09:23:11.400Z,9.58
2019-05-18T09:25:39.436Z,8.90
2019-05-18T09:28:07.517Z,8.38
2019-05-18T09:30:35.636Z,5.47
2019-05-18T09:33:03.772Z,7.70
2019-05-18T09:35:31.829Z,7.22
2019-05-18T09:38:00.178Z,5.47
2019-05-18T09:40:28.250Z,5.58
2019-05-18T09:42:56.265Z,5.95
2019-05-18T09:45:24.279Z,7.25
2019-05-18T09:47:52.353Z,6.10
2019-05-18T09:50:20.372Z,5.40
2019-05-18T09:52:48.390Z,6.45
2019-05-18T09:55:16.462Z,6.72
2019-05-18T09:57:44.511Z,4.67
2019-05-18T10:00:12.916Z,4.67
2019-05-18T10:02:41.007Z,5.25
2019-05-18T10:05:09.134Z,5.37
2019-05-18T10:07:37.249Z,6.65
2019-05-18T10:10:05.313Z,6.92
2019-05-18T10:12:33.400Z,7.15
2019-05-18T10:15:02.190Z,5.50
2019-05-18T10:17:31.358Z,5.12
2019-05-18T10:19:59.516Z,5.65
2019-05-18T10:22:27.563Z,4.83
2019-05-18T10:24:55.633Z,6.72
2019-05-18T10:27:23.891Z,5.50
2019-05-18T10:29:52.142Z,5.20
2019-05-18T10:32:23.040Z,4.85
2019-05-18T10:34:51.113Z,5.55
2019-05-18T10:37:19.126Z,4.60
2019-05-18T10:39:47.165Z,5.10
2019-05-18T10:42:15.483Z,7.58
2019-05-18T10:44:43.523Z,7.05
2019-05-18T10:47:11.631Z,7.85
2019-05-18T10:49:39.700Z,6.50
2019-05-18T10:52:07.949Z,6.17
2019-05-18T10:54:35.989Z,8.13
2019-05-18T10:57:04.007Z,8.28
2019-05-18T10:59:32.139Z,7.50
2019-05-18T11:02:01.097Z,6.30
2019-05-18T11:04:29.184Z,5.60
2019-05-18T11:06:57.176Z,5.30
2019-05-18T11:09:25.260Z,5.03
2019-05-18T11:11:53.322Z,4.58
2019-05-18T11:14:21.349Z,4.30
2019-05-18T11:16:49.445Z,4.78
2019-05-18T11:19:17.708Z,4.50
2019-05-18T11:21:45.744Z,4.42
2019-05-18T11:24:13.894Z,4.10
2019-05-18T11:26:41.988Z,4.22
2019-05-18T11:29:09.974Z,4.20
2019-05-18T11:31:38.145Z,4.20
2019-05-18T11:34:06.196Z,3.80
2019-05-18T11:36:34.818Z,3.98
2019-05-18T11:39:03.114Z,4.00
2019-05-18T11:41:31.342Z,4.60
2019-05-18T11:43:59.496Z,4.42
2019-05-18T11:46:27.513Z,4.70
2019-05-18T11:48:56.051Z,4.30
2019-05-18T11:51:24.115Z,4.60
2019-05-18T11:53:58.304Z,4.05
2019-05-18T11:56:22.027Z,4.20
2019-05-18T11:58:50.029Z,4.47
2019-05-18T12:01:18.207Z,4.12
2019-05-18T12:03:46.331Z,4.10
2019-05-18T12:06:14.700Z,4.30
2019-05-18T12:08:43.518Z,4.60
2019-05-18T12:11:11.625Z,4.80
2019-05-18T12:13:39.631Z,5.83
2019-05-18T12:16:07.660Z,6.10
2019-05-18T12:18:35.802Z,6.33
2019-05-18T12:21:03.905Z,6.25
2019-05-18T12:23:31.934Z,6.00
2019-05-18T12:25:59.992Z,6.10
2019-05-18T12:28:28.141Z,6.47
2019-05-18T12:30:56.177Z,5.97
2019-05-18T12:33:24.322Z,5.70
2019-05-18T12:35:52.328Z,5.97
2019-05-18T12:38:20.350Z,5.47
2019-05-18T12:40:48.503Z,5.12
2019-05-18T12:43:16.534Z,5.00
2019-05-18T12:45:44.591Z,4.75
2019-05-18T12:48:12.702Z,4.78
2019-05-18T12:50:40.704Z,5.03
2019-05-18T12:53:08.787Z,5.50
2019-05-18T12:55:36.855Z,5.60
2019-05-18T12:58:04.901Z,5.90
2019-05-18T13:00:32.926Z,6.22
2019-05-18T13:03:01.179Z,5.67
2019-05-18T13:05:29.277Z,6.17
2019-05-18T13:07:57.630Z,6.15
2019-05-18T13:10:25.667Z,6.17
2019-05-18T13:12:53.676Z,7.08
2019-05-18T13:15:21.715Z,7.08
2019-05-18T13:17:49.811Z,7.35
2019-05-18T13:20:17.840Z,7.05
2019-05-18T13:22:45.906Z,7.20
2019-05-18T13:25:13.995Z,8.00
2019-05-18T13:27:42.084Z,7.85
2019-05-18T13:30:10.151Z,7.90
2019-05-18T13:32:38.269Z,8.15
2019-05-18T13:35:06.337Z,7.62
2019-05-18T13:37:34.707Z,8.00
2019-05-18T13:40:02.897Z,8.00
2019-05-18T13:42:30.983Z,9.05
2019-05-18T13:44:58.996Z,8.43
2019-05-18T13:47:27.010Z,8.30
2019-05-18T13:49:55.084Z,8.73
2019-05-18T13:52:23.124Z,8.25
2019-05-18T13:55:03.089Z,8.68
2019-05-18T13:57:20.960Z,8.83
2019-05-18T13:59:49.077Z,8.78
2019-05-18T14:02:17.457Z,8.90
2019-05-18T14:04:45.508Z,8.80
2019-05-18T14:07:13.510Z,8.60
2019-05-18T14:09:41.533Z,8.18
2019-05-18T14:12:09.540Z,8.10
2019-05-18T14:14:37.686Z,8.43
2019-05-18T14:17:05.709Z,8.70
2019-05-18T14:19:33.932Z,8.70
2019-05-18T14:22:02.098Z,8.78
2019-05-18T14:24:30.128Z,8.63
2019-05-18T14:26:58.186Z,8.43
2019-05-18T14:29:26.199Z,8.78
2019-05-18T14:31:54.851Z,8.85
2019-05-18T14:34:23.246Z,8.93
2019-05-18T14:36:51.376Z,8.53
2019-05-18T14:39:19.483Z,8.30
2019-05-18T14:41:47.509Z,8.60
2019-05-18T14:44:15.579Z,8.78
2019-05-18T14:46:43.649Z,9.53
2019-05-18T14:49:11.704Z,9.63
2019-05-18T14:51:39.787Z,9.00
2019-05-18T14:54:07.878Z,9.30
2019-05-18T14:56:35.985Z,9.28
2019-05-18T14:59:04.014Z,9.13
2019-05-18T15:01:32.064Z,8.48
2019-05-18T15:04:00.161Z,10.08
2019-05-18T15:06:28.166Z,9.38
2019-05-18T15:08:56.144Z,8.80
2019-05-18T15:11:24.759Z,9.40
2019-05-18T15:13:52.834Z,9.50
2019-05-18T15:16:21.102Z,10.13
2019-05-18T15:18:50.974Z,9.43
2019-05-18T15:21:19.182Z,9.70
2019-05-18T15:23:47.256Z,9.58
2019-05-18T15:26:15.676Z,9.70
2019-05-18T15:28:43.721Z,9.68
2019-05-18T15:31:11.783Z,9.58
2019-05-18T15:33:39.804Z,9.93
2019-05-18T15:36:07.819Z,9.83
2019-05-18T15:38:35.841Z,9.93
2019-05-18T15:41:03.878Z,10.00
2019-05-18T15:43:31.938Z,9.73
2019-05-18T15:46:00.144Z,9.85
2019-05-18T15:48:28.269Z,9.80
2019-05-18T15:50:59.223Z,10.25
2019-05-18T15:53:26.225Z,10.48
2019-05-18T15:56:05.382Z,10.45
2019-05-18T15:58:23.965Z,10.13
2019-05-18T16:00:52.047Z,10.13
2019-05-18T16:03:20.042Z,10.25
2019-05-18T16:05:48.096Z,10.25
2019-05-18T16:08:16.155Z,10.70
2019-05-18T16:10:44.180Z,10.82
2019-05-18T16:13:12.236Z,11.03
2019-05-18T16:15:40.317Z,10.45
2019-05-18T16:18:08.334Z,10.90
2019-05-18T16:20:36.328Z,10.78
2019-05-18T16:23:04.727Z,11.50
2019-05-18T16:25:32.926Z,11.08
2019-05-18T16:28:00.986Z,11.68
2019-05-18T16:30:29.191Z,11.60
2019-05-18T16:32:57.185Z,10.90
2019-05-18T16:35:25.241Z,10.90
2019-05-18T16:37:53.372Z,11.00
2019-05-18T16:40:21.402Z,11.40
2019-05-18T16:42:49.459Z,10.93
2019-05-18T16:45:17.492Z,10.58
2019-05-18T16:47:45.528Z,10.58
2019-05-18T16:50:13.585Z,9.98
2019-05-18T16:52:41.827Z,11.48
2019-05-18T16:55:09.889Z,10.95
2019-05-18T16:57:38.114Z,11.30
2019-05-18T17:00:06.164Z,9.85
2019-05-18T17:02:34.205Z,10.13
2019-05-18T17:05:02.347Z,9.65
2019-05-18T17:07:30.490Z,9.68
2019-05-18T17:09:58.545Z,9.85
2019-05-18T17:12:26.572Z,9.05
2019-05-18T17:14:54.610Z,9.35
2019-05-18T17:17:22.894Z,9.48
2019-05-18T17:19:50.919Z,9.70
2019-05-18T17:22:19.259Z,9.15
2019-05-18T17:24:47.344Z,10.95
2019-05-18T17:27:15.407Z,10.70
2019-05-18T17:29:43.669Z,10.98
2019-05-18T17:32:11.791Z,11.90
2019-05-18T17:34:39.895Z,11.08
2019-05-18T17:37:07.966Z,10.80
2019-05-18T17:39:36.004Z,12.28
2019-05-18T17:42:05.179Z,10.18
2019-05-18T17:44:33.465Z,11.48
2019-05-18T17:47:01.515Z,11.15
2019-05-18T17:49:29.705Z,11.63
2019-05-18T17:51:57.859Z,11.30
2019-05-18T17:54:26.091Z,10.15
2019-05-18T17:57:07.460Z,10.72
2019-05-18T17:59:23.929Z,10.53
2019-05-18T18:01:51.975Z,11.85
2019-05-18T18:04:20.032Z,11.12
2019-05-18T18:06:48.133Z,10.72
2019-05-18T18:09:16.193Z,11.68
2019-05-18T18:11:44.543Z,11.78
2019-05-18T18:14:12.650Z,11.53
2019-05-18T18:16:40.703Z,11.15
2019-05-18T18:19:08.743Z,11.28
2019-05-18T18:21:36.783Z,10.72
2019-05-18T18:24:04.806Z,10.93
2019-05-18T18:26:32.860Z,10.80
2019-05-18T18:29:04.043Z,10.50
2019-05-18T18:31:30.625Z,11.00
2019-05-18T18:33:58.625Z,10.85
2019-05-18T18:36:26.673Z,10.72
2019-05-18T18:38:54.695Z,10.58
2019-05-18T18:41:22.776Z,10.82
2019-05-18T18:43:50.867Z,10.85
2019-05-18T18:46:18.871Z,10.43
2019-05-18T18:48:46.944Z,10.40
2019-05-18T18:51:15.018Z,9.95
2019-05-18T18:53:43.036Z,13.62
2019-05-18T18:56:11.091Z,14.07
2019-05-18T18:58:39.317Z,14.00
2019-05-18T19:01:07.351Z,14.03
2019-05-18T19:03:35.423Z,15.32
2019-05-18T19:06:03.510Z,14.05
2019-05-18T19:08:31.526Z,15.53
2019-05-18T19:10:59.535Z,16.02
2019-05-18T19:13:27.735Z,15.65
2019-05-18T19:15:55.846Z,14.90
2019-05-18T19:18:23.865Z,15.72
2019-05-18T19:20:51.929Z,15.48
2019-05-18T19:23:19.944Z,16.45
2019-05-18T19:25:48.031Z,15.65
2019-05-18T19:28:16.083Z,15.85
2019-05-18T19:30:44.122Z,16.23
2019-05-18T19:33:12.824Z,15.60
2019-05-18T19:35:40.884Z,13.60
2019-05-18T19:38:08.916Z,14.63
2019-05-18T19:40:37.017Z,15.45
2019-05-18T19:43:05.152Z,15.35
2019-05-18T19:45:33.190Z,15.28
2019-05-18T19:48:01.239Z,16.12
2019-05-18T19:50:29.286Z,15.95
2019-05-18T19:52:57.542Z,15.95
2019-05-18T19:55:25.564Z,16.12
2019-05-18T19:58:07.791Z,16.85
2019-05-18T20:00:23.972Z,16.40
2019-05-18T20:02:52.048Z,16.82
2019-05-18T20:05:20.125Z,16.25
2019-05-18T20:07:48.114Z,16.90
2019-05-18T20:10:16.182Z,16.75
2019-05-18T20:12:44.222Z,16.65
2019-05-18T20:15:12.371Z,16.02
2019-05-18T20:17:40.778Z,17.25
2019-05-18T20:20:09.671Z,17.32
2019-05-18T20:22:37.768Z,16.50
2019-05-18T20:25:05.848Z,17.05
2019-05-18T20:27:33.931Z,18.02
2019-05-18T20:30:01.994Z,17.75
2019-05-18T20:32:30.022Z,17.15
2019-05-18T20:34:58.055Z,17.87
2019-05-18T20:37:26.061Z,18.05
2019-05-18T20:39:54.087Z,17.60
2019-05-18T20:42:22.189Z,18.55
2019-05-18T20:44:50.625Z,18.37
2019-05-18T20:47:18.895Z,18.23
2019-05-18T20:49:46.925Z,16.85
2019-05-18T20:52:14.977Z,17.17
2019-05-18T20:54:43.048Z,15.45
2019-05-18T20:57:11.095Z,15.13
2019-05-18T20:59:39.166Z,15.25
2019-05-18T21:02:07.220Z,15.63
2019-05-18T21:04:35.268Z,14.78
2019-05-18T21:07:03.308Z,14.87
2019-05-18T21:09:31.345Z,14.68
2019-05-18T21:11:59.421Z,14.78
2019-05-18T21:14:27.502Z,14.80
2019-05-18T21:16:55.541Z,15.55
2019-05-18T21:19:23.587Z,14.58
2019-05-18T21:21:51.710Z,14.13
2019-05-18T21:24:19.786Z,13.88
2019-05-18T21:26:47.914Z,15.03
2019-05-18T21:29:15.952Z,14.45
2019-05-18T21:31:43.970Z,15.05
2019-05-18T21:34:12.004Z,14.87
2019-05-18T21:36:40.075Z,11.53
2019-05-18T21:39:08.890Z,13.62
2019-05-18T21:41:36.895Z,14.55
2019-05-18T21:44:04.943Z,14.00
2019-05-18T21:46:33.459Z,13.85
2019-05-18T21:49:01.738Z,14.18
2019-05-18T21:51:29.868Z,14.43
2019-05-18T21:53:57.917Z,12.75
2019-05-18T21:56:25.925Z,13.75
2019-05-18T21:58:54.053Z,13.30
2019-05-18T22:01:22.139Z,13.40
2019-05-18T22:03:50.158Z,13.10
2019-05-18T22:06:18.252Z,12.45
2019-05-18T22:08:46.284Z,12.68
2019-05-18T22:11:14.300Z,13.32
2019-05-18T22:13:42.375Z,12.60
2019-05-18T22:16:10.447Z,12.73
2019-05-18T22:18:38.497Z,11.90
2019-05-18T22:21:06.560Z,12.10
2019-05-18T22:23:34.577Z,13.00
2019-05-18T22:26:02.627Z,13.58
2019-05-18T22:28:30.716Z,14.25
2019-05-18T22:30:58.942Z,12.78
2019-05-18T22:33:26.992Z,12.07
2019-05-18T22:35:55.391Z,11.78
2019-05-18T22:38:23.507Z,14.15
2019-05-18T22:40:51.595Z,14.65
2019-05-18T22:43:19.746Z,13.80
2019-05-18T22:45:47.849Z,13.18
2019-05-18T22:48:15.905Z,13.10
2019-05-18T22:50:43.896Z,13.70
2019-05-18T22:53:11.999Z,14.47
2019-05-18T22:55:40.077Z,12.35
2019-05-18T22:58:08.097Z,13.55
2019-05-18T23:00:36.133Z,13.28
2019-05-18T23:03:04.219Z,13.68
2019-05-18T23:05:32.231Z,13.30
2019-05-18T23:08:00.364Z,12.80
2019-05-18T23:10:28.398Z,12.88
2019-05-18T23:12:56.542Z,12.40
2019-05-18T23:15:24.553Z,12.15
2019-05-18T23:17:52.627Z,12.53
2019-05-18T23:20:20.692Z,12.20
2019-05-18T23:23:07.485Z,13.03
2019-05-18T23:25:35.546Z,12.68
2019-05-18T23:28:03.886Z,11.80
2019-05-18T23:30:31.934Z,12.40
2019-05-18T23:32:59.934Z,12.58
2019-05-18T23:35:27.991Z,13.90
2019-05-18T23:37:56.166Z,12.65
2019-05-18T23:40:24.226Z,11.48
2019-05-18T23:42:52.795Z,11.10
2019-05-18T23:45:22.041Z,10.38
2019-05-18T23:47:50.210Z,11.88
2019-05-18T23:50:18.204Z,10.60
2019-05-18T23:52:46.270Z,11.10
2019-05-18T23:55:14.270Z,10.98
2019-05-18T23:57:42.345Z,12.43
